createdAt,value
2023-04-13T00:03:58.309Z,98747.13
2023-04-13T00:09:00.896Z,98750.59
2023-04-13T00:14:02.460Z,98759.69
2023-04-13T00:19:04.338Z,98755.13
2023-04-13T00:24:06.224Z,98747.44
2023-04-13T00:29:08.160Z,98757.38
2023-04-13T00:34:09.901Z,98755.91
2023-04-13T00:39:11.516Z,98759.59
2023-04-13T00:44:13.107Z,98766.81
2023-04-13T00:49:15.313Z,98756.50
2023-04-13T00:54:18.855Z,98764.53
2023-04-13T00:59:21.008Z,98761.44
2023-04-13T01:04:27.375Z,98763.91
2023-04-13T01:09:34.978Z,98751.13
2023-04-13T01:14:41.888Z,98765.19
2023-04-13T01:20:14.190Z,98775.69
2023-04-13T01:25:36.786Z,98778.38
2023-04-13T01:30:39.429Z,98782.31
2023-04-13T01:35:41.342Z,98785.13
2023-04-13T01:40:48.261Z,98773.38
2023-04-13T01:45:56.213Z,98782.50
2023-04-13T01:51:01.513Z,98776.75
2023-04-13T01:56:23.142Z,98789.31
2023-04-13T02:01:30.569Z,98786.53
2023-04-13T02:06:33.819Z,98797.25
2023-04-13T02:11:39.467Z,98815.84
2023-04-13T02:16:42.535Z,98819.19
2023-04-13T02:21:44.796Z,98824.28
2023-04-13T02:26:46.433Z,98841.59
2023-04-13T02:31:48.921Z,98848.19
2023-04-13T02:36:50.566Z,98844.66
2023-04-13T02:41:52.204Z,98847.94
2023-04-13T02:46:56.776Z,98847.94
2023-04-13T02:51:59.354Z,98839.25
2023-04-13T02:57:22.437Z,98841.91
2023-04-13T03:02:29.285Z,98848.19
2023-04-13T03:07:31.968Z,98856.47
2023-04-13T03:12:34.036Z,98853.31
2023-04-13T03:17:40.362Z,98857.38
2023-04-13T03:22:45.180Z,98864.09
2023-04-13T03:27:47.070Z,98868.44
2023-04-13T03:32:52.411Z,98879.97
2023-04-13T03:37:57.449Z,98875.34
2023-04-13T03:43:10.427Z,98904.56
2023-04-13T03:48:17.272Z,98901.84
2023-04-13T03:53:18.871Z,98904.81
2023-04-13T03:58:22.268Z,98911.63
2023-04-13T04:03:25.715Z,98907.25
2023-04-13T04:08:41.178Z,98911.56
2023-04-13T04:13:53.180Z,98908.16
2023-04-13T04:18:55.341Z,98894.03
2023-04-13T04:23:57.957Z,98885.91
2023-04-13T04:29:02.112Z,98883.97
2023-04-13T04:34:05.365Z,98902.16
2023-04-13T04:39:10.084Z,98921.47
2023-04-13T04:44:25.289Z,98928.88
2023-04-13T04:49:28.572Z,98931.56
2023-04-13T04:54:32.863Z,98931.91
2023-04-13T04:59:34.886Z,98932.13
2023-04-13T05:04:38.760Z,98941.19
2023-04-13T05:09:41.083Z,98957.34
2023-04-13T05:14:42.846Z,98962.31
2023-04-13T05:19:45.894Z,98996.47
2023-04-13T05:25:06.504Z,99002.38
2023-04-13T05:30:09.461Z,99009.81
2023-04-13T05:35:13.774Z,99012.00
2023-04-13T05:40:16.984Z,99028.00
2023-04-13T05:45:18.679Z,99030.47
2023-04-13T05:50:33.670Z,99041.28
2023-04-13T05:55:35.740Z,99063.81
2023-04-13T06:00:40.006Z,99067.16
2023-04-13T06:05:46.916Z,99063.72
2023-04-13T06:10:49.884Z,99069.63
2023-04-13T06:15:52.842Z,99078.50
2023-04-13T06:20:55.097Z,99065.84
2023-04-13T06:25:57.650Z,99059.09
2023-04-13T06:31:13.830Z,99075.38
2023-04-13T06:36:18.237Z,99079.25
2023-04-13T06:41:20.394Z,99067.63
2023-04-13T06:46:23.818Z,99058.00
2023-04-13T06:51:28.129Z,99064.38
2023-04-13T06:56:32.317Z,99061.25
2023-04-13T07:01:34.659Z,99063.81
2023-04-13T07:06:36.765Z,99069.84
2023-04-13T07:11:38.451Z,99060.41
2023-04-13T07:16:40.247Z,99057.75
2023-04-13T07:21:42.342Z,99080.75
2023-04-13T07:26:44.114Z,99094.41
2023-04-13T07:31:45.945Z,99091.63
2023-04-13T07:36:47.825Z,99103.00
2023-04-13T07:41:53.152Z,99098.09
2023-04-13T07:47:03.013Z,99105.88
2023-04-13T07:52:06.415Z,99117.13
2023-04-13T07:57:10.856Z,99123.00
2023-04-13T08:02:18.378Z,99137.84
2023-04-13T08:07:23.704Z,99147.47
2023-04-13T08:12:25.300Z,99150.59
2023-04-13T08:17:28.108Z,99157.75
2023-04-13T08:22:29.743Z,99156.16
2023-04-13T08:27:31.566Z,99161.91
2023-04-13T08:32:33.161Z,99167.91
2023-04-13T08:37:35.229Z,99172.59
2023-04-13T08:42:38.881Z,99170.78
2023-04-13T08:47:41.476Z,99163.69
2023-04-13T08:52:43.865Z,99168.47
2023-04-13T08:57:51.559Z,99173.50
2023-04-13T09:03:04.450Z,99170.81
2023-04-13T09:08:08.517Z,99163.59
2023-04-13T09:13:13.923Z,99168.03
2023-04-13T09:18:16.139Z,99179.47
2023-04-13T09:23:24.554Z,99164.47
2023-04-13T09:28:26.575Z,99183.56
2023-04-13T09:33:28.526Z,99190.81
2023-04-13T09:38:31.607Z,99191.81
2023-04-13T09:43:37.768Z,99194.03
2023-04-13T09:48:40.044Z,99199.38
2023-04-13T09:53:43.090Z,99205.38
2023-04-13T09:58:46.490Z,99199.97
2023-04-13T10:03:48.227Z,99201.78
2023-04-13T10:08:49.856Z,99201.84
2023-04-13T10:13:54.308Z,99199.03
2023-04-13T10:19:14.683Z,99194.53
2023-04-13T10:24:16.533Z,99179.44
2023-04-13T10:29:30.273Z,99195.59
2023-04-13T10:34:34.411Z,99210.91
2023-04-13T10:39:36.827Z,99200.19
2023-04-13T10:44:51.464Z,99195.44
2023-04-13T10:49:53.161Z,99200.19
2023-04-13T10:54:55.010Z,99198.06
2023-04-13T10:59:59.357Z,99199.56
2023-04-13T11:05:02.024Z,99196.66
2023-04-13T11:10:04.333Z,99195.78
2023-04-13T11:15:06.595Z,99195.94
2023-04-13T11:20:11.241Z,99194.25
2023-04-13T11:25:13.139Z,99198.19
2023-04-13T11:30:14.710Z,99194.38
2023-04-13T11:35:17.250Z,99201.16
2023-04-13T11:40:22.917Z,99205.19
2023-04-13T11:45:29.773Z,99200.66
2023-04-13T11:50:32.171Z,99195.22
2023-04-13T11:55:49.762Z,99181.09
2023-04-13T12:00:59.924Z,99180.09
2023-04-13T12:06:04.734Z,99186.13
2023-04-13T12:11:38.974Z,99190.31
2023-04-13T12:17:01.662Z,99184.47
2023-04-13T12:21:56.689Z,99182.00
2023-04-13T12:27:17.951Z,99184.44
2023-04-13T12:32:20.304Z,99179.66
2023-04-13T12:37:21.911Z,99178.09
2023-04-13T12:42:23.636Z,99175.69
2023-04-13T12:47:25.918Z,99178.94
2023-04-13T12:52:29.382Z,99177.41
2023-04-13T12:57:31.205Z,99178.28
2023-04-13T13:02:32.900Z,99194.16
2023-04-13T13:07:34.564Z,99194.31
2023-04-13T13:12:36.444Z,99193.53
2023-04-13T13:17:41.418Z,99170.16
2023-04-13T13:22:43.259Z,99171.94
2023-04-13T13:32:49.420Z,99187.53
2023-04-13T13:37:51.106Z,99185.94
2023-04-13T13:42:53.834Z,99175.91
2023-04-13T13:47:57.850Z,99186.47
2023-04-13T13:53:26.463Z,99192.28
2023-04-13T13:58:28.116Z,99190.03
2023-04-13T14:03:29.814Z,99187.66
2023-04-13T14:08:31.529Z,99183.97
2023-04-13T14:13:33.153Z,99186.63
2023-04-13T14:18:34.778Z,99178.72
2023-04-13T14:23:37.517Z,99180.59
2023-04-13T14:28:39.151Z,99174.88
2023-04-13T14:33:42.213Z,99174.03
2023-04-13T14:38:44.076Z,99175.84
2023-04-13T14:43:45.620Z,99176.28
2023-04-13T14:48:47.278Z,99175.88
2023-04-13T14:53:49.321Z,99181.53
2023-04-13T14:58:51.030Z,99187.47
2023-04-13T15:03:53.878Z,99192.91
2023-04-13T15:08:55.810Z,99207.78
2023-04-13T15:13:57.447Z,99218.13
2023-04-13T15:18:59.571Z,99223.66
2023-04-13T15:24:01.444Z,99210.34
2023-04-13T15:29:03.358Z,99219.41
2023-04-13T15:34:08.470Z,99223.72
2023-04-13T15:39:10.223Z,99232.50
2023-04-13T15:44:11.783Z,99244.00
2023-04-13T15:49:13.475Z,99230.63
2023-04-13T15:54:15.049Z,99240.19
2023-04-13T15:59:16.729Z,99248.28
2023-04-13T16:04:18.626Z,99246.25
2023-04-13T16:09:20.324Z,99252.22
2023-04-13T16:14:22.054Z,99249.00
2023-04-13T16:19:23.774Z,99251.78
2023-04-13T16:24:26.275Z,99255.69
2023-04-13T16:29:28.877Z,99248.44
2023-04-13T16:34:30.573Z,99247.84
2023-04-13T16:39:32.687Z,99246.75
2023-04-13T16:44:34.226Z,99239.31
2023-04-13T16:49:35.925Z,99245.94
2023-04-13T16:54:42.709Z,99248.00
2023-04-13T16:59:44.416Z,99254.56
2023-04-13T17:04:46.132Z,99256.69
2023-04-13T17:09:47.719Z,99250.03
2023-04-13T17:14:52.265Z,99254.44
2023-04-13T17:19:54.525Z,99253.06
2023-04-13T17:24:56.089Z,99243.41
2023-04-13T17:29:57.876Z,99238.81
2023-04-13T17:34:59.506Z,99240.84
2023-04-13T17:40:01.232Z,99234.38
2023-04-13T17:45:03.050Z,99236.72
2023-04-13T17:50:05.021Z,99236.88
2023-04-13T17:55:07.374Z,99237.25
2023-04-13T18:00:09.546Z,99252.06
2023-04-13T18:05:15.312Z,99280.88
2023-04-13T18:10:16.999Z,99308.19
2023-04-13T18:15:18.625Z,99342.06
2023-04-13T18:20:20.582Z,99384.75
2023-04-13T18:25:22.134Z,99401.16
2023-04-13T18:30:23.675Z,99395.41
2023-04-13T18:35:25.568Z,99405.69
2023-04-13T18:40:27.169Z,99416.25
2023-04-13T18:45:28.971Z,99416.81
2023-04-13T18:50:30.671Z,99415.41
2023-04-13T18:55:32.357Z,99420.88
2023-04-13T19:00:33.933Z,99416.13
2023-04-13T19:05:35.676Z,99412.72
2023-04-13T19:10:37.327Z,99400.41
2023-04-13T19:15:39.231Z,99393.53
2023-04-13T19:20:40.876Z,99392.41
2023-04-13T19:25:42.443Z,99387.31
2023-04-13T19:30:44.153Z,99384.84
2023-04-13T19:35:45.766Z,99387.06
2023-04-13T19:40:47.388Z,99378.44
2023-04-13T19:45:48.993Z,99380.66
2023-04-13T19:50:50.803Z,99383.44
2023-04-13T19:55:52.405Z,99390.94
2023-04-13T20:00:54.043Z,99365.66
2023-04-13T20:05:58.422Z,99363.50
2023-04-13T20:11:00.314Z,99360.19
2023-04-13T20:16:02.024Z,99371.22
2023-04-13T20:21:03.837Z,99376.94
2023-04-13T20:26:05.460Z,99381.66
2023-04-13T20:31:08.317Z,99382.03
2023-04-13T20:36:09.961Z,99382.47
2023-04-13T20:41:13.887Z,99380.19
2023-04-13T20:46:16.584Z,99371.38
2023-04-13T20:51:19.060Z,99353.50
2023-04-13T20:56:23.717Z,99340.63
2023-04-13T21:01:25.403Z,99337.13
2023-04-13T21:06:29.904Z,99339.44
2023-04-13T21:11:31.827Z,99335.13
2023-04-13T21:16:33.484Z,99330.09
2023-04-13T21:21:35.996Z,99341.53
2023-04-13T21:26:37.586Z,99346.44
2023-04-13T21:31:39.234Z,99353.25
2023-04-13T21:41:48.276Z,99360.66
2023-04-13T21:46:49.869Z,99373.16
2023-04-13T21:51:51.403Z,99380.06
2023-04-13T21:56:52.953Z,99365.44
2023-04-13T22:01:54.832Z,99362.53
2023-04-13T22:06:56.633Z,99352.22
2023-04-13T22:11:58.188Z,99343.81
2023-04-13T22:16:59.763Z,99337.84
2023-04-13T22:22:01.364Z,99326.66
2023-04-13T22:27:03.582Z,99327.94
2023-04-13T22:32:05.161Z,99312.88
2023-04-13T22:37:06.991Z,99307.59
2023-04-13T22:42:08.585Z,99308.31
2023-04-13T22:47:10.280Z,99307.75
2023-04-13T22:52:13.056Z,99324.06
2023-04-13T22:57:14.742Z,99327.81
2023-04-13T23:02:16.441Z,99341.50
2023-04-13T23:07:18.086Z,99350.69
2023-04-13T23:12:19.703Z,99372.34
2023-04-13T23:17:21.366Z,99372.66
2023-04-13T23:22:23.018Z,99363.25
2023-04-13T23:27:25.516Z,99371.81
2023-04-13T23:32:27.074Z,99367.59
2023-04-13T23:37:28.674Z,99374.34
2023-04-13T23:42:30.219Z,99375.00
2023-04-13T23:47:32.072Z,99369.69
2023-04-13T23:52:34.085Z,99357.81
2023-04-13T23:57:35.812Z,99364.00
